Aviation Digital Data Service (ADDS)

Output produced by METARs form (1056 UTC 19 January 2019)
found at http://www.aviationweather.gov/metar/data/
 
TAF TXKF 190545Z 1906/2006 26010KT 9999 FEW065 
     PROB30 
     TEMPO 1906/1909 4800 SHRA BKN020 
     BECMG 1907/1910 31007KT